createdAt,value
2022-08-25T00:00:29.840Z,18.43
2022-08-25T00:01:29.815Z,18.48
2022-08-25T00:02:29.850Z,18.48
2022-08-25T00:03:29.797Z,18.46
2022-08-25T00:04:30.784Z,18.42
2022-08-25T00:05:32.316Z,18.39
2022-08-25T00:06:29.761Z,18.41
2022-08-25T00:07:29.747Z,18.39
2022-08-25T00:08:29.723Z,18.39
2022-08-25T00:09:29.708Z,18.39
2022-08-25T00:10:29.713Z,18.39
2022-08-25T00:11:29.695Z,18.41
2022-08-25T00:12:29.670Z,18.39
2022-08-25T00:13:29.680Z,18.36
2022-08-25T00:14:29.650Z,18.36
2022-08-25T00:15:29.731Z,18.36
2022-08-25T00:16:29.619Z,18.34
2022-08-25T00:17:29.601Z,18.31
2022-08-25T00:18:29.591Z,18.30
2022-08-25T00:19:29.575Z,18.31
2022-08-25T00:20:29.581Z,18.30
2022-08-25T00:21:30.773Z,18.31
2022-08-25T00:22:29.543Z,18.31
2022-08-25T00:23:29.524Z,18.34
2022-08-25T00:24:29.511Z,18.31
2022-08-25T00:25:29.514Z,18.31
2022-08-25T00:26:29.485Z,18.34
2022-08-25T00:27:29.474Z,18.28
2022-08-25T00:28:29.455Z,18.30
2022-08-25T00:29:29.466Z,18.31
2022-08-25T00:30:29.444Z,18.28
2022-08-25T00:31:38.598Z,18.27
2022-08-25T00:32:30.407Z,18.33
2022-08-25T00:33:29.398Z,18.27
2022-08-25T00:34:29.396Z,18.28
2022-08-25T00:35:29.379Z,18.24
2022-08-25T00:36:29.361Z,18.24
2022-08-25T00:37:29.342Z,18.23
2022-08-25T00:38:29.326Z,18.23
2022-08-25T00:39:29.309Z,18.20
2022-08-25T00:40:29.358Z,18.23
2022-08-25T00:41:29.289Z,18.20
2022-08-25T00:42:29.278Z,18.18
2022-08-25T00:43:29.261Z,18.20
2022-08-25T00:44:29.267Z,18.20
2022-08-25T00:45:30.189Z,18.23
2022-08-25T00:46:29.293Z,18.20
2022-08-25T00:47:29.202Z,18.23
2022-08-25T00:48:29.198Z,18.20
2022-08-25T00:49:29.175Z,18.21
2022-08-25T00:50:29.172Z,18.18
2022-08-25T00:51:29.200Z,18.13
2022-08-25T00:52:29.142Z,18.12
2022-08-25T00:53:29.121Z,18.17
2022-08-25T00:54:29.120Z,18.15
2022-08-25T00:55:29.113Z,18.17
2022-08-25T00:56:29.085Z,18.15
2022-08-25T00:57:34.884Z,18.17
2022-08-25T00:58:30.061Z,18.12
2022-08-25T00:59:29.045Z,18.09
2022-08-25T01:00:29.303Z,18.06
2022-08-25T01:01:29.091Z,18.06
2022-08-25T01:02:29.062Z,18.05
2022-08-25T01:03:33.495Z,18.02
2022-08-25T01:04:29.978Z,18.01
2022-08-25T01:05:28.977Z,17.97
2022-08-25T01:06:28.948Z,17.97
2022-08-25T01:07:28.939Z,17.96
2022-08-25T01:08:29.281Z,17.97
2022-08-25T01:09:28.909Z,17.94
2022-08-25T01:10:28.921Z,17.96
2022-08-25T01:11:28.895Z,17.97
2022-08-25T01:12:29.135Z,17.97
2022-08-25T01:13:28.852Z,17.97
2022-08-25T01:14:28.851Z,17.97
2022-08-25T01:15:28.885Z,17.97
2022-08-25T01:16:28.828Z,17.94
2022-08-25T01:17:28.801Z,17.94
2022-08-25T01:18:28.792Z,17.88
2022-08-25T01:19:28.781Z,17.88
2022-08-25T01:20:29.399Z,17.91
2022-08-25T01:21:28.743Z,17.88
2022-08-25T01:22:28.743Z,17.90
2022-08-25T01:23:28.723Z,17.90
2022-08-25T01:24:28.720Z,17.88
2022-08-25T01:25:28.700Z,17.88
2022-08-25T01:26:30.541Z,17.86
2022-08-25T01:27:28.667Z,17.86
2022-08-25T01:28:28.672Z,17.84
2022-08-25T01:29:28.645Z,17.84
2022-08-25T01:30:28.637Z,17.81
2022-08-25T01:31:28.662Z,17.81
2022-08-25T01:32:28.604Z,17.81
2022-08-25T01:33:28.588Z,17.81
2022-08-25T01:34:28.600Z,17.79
2022-08-25T01:35:28.558Z,17.79
2022-08-25T01:36:28.548Z,17.79
2022-08-25T01:37:28.539Z,17.78
2022-08-25T01:38:28.531Z,17.75
2022-08-25T01:39:28.519Z,17.73
2022-08-25T01:41:37.712Z,17.66
2022-08-25T01:42:37.963Z,17.65
2022-08-25T01:43:37.672Z,17.62
2022-08-25T01:44:37.670Z,17.53
2022-08-25T01:45:37.703Z,17.45
2022-08-25T01:46:37.723Z,17.43
2022-08-25T01:47:37.625Z,17.39
2022-08-25T01:48:37.613Z,17.39
2022-08-25T01:49:37.606Z,17.38
2022-08-25T01:50:37.586Z,17.38
2022-08-25T01:51:37.576Z,17.39
2022-08-25T01:52:37.556Z,17.38
2022-08-25T01:53:37.547Z,17.37
2022-08-25T01:54:37.547Z,17.35
2022-08-25T01:55:37.517Z,17.37
2022-08-25T01:56:37.504Z,17.37
2022-08-25T01:57:37.497Z,17.37
2022-08-25T01:58:37.494Z,17.32
2022-08-25T01:59:37.480Z,17.37
2022-08-25T02:00:37.455Z,17.34
2022-08-25T02:01:37.516Z,17.38
2022-08-25T02:02:37.458Z,17.38
2022-08-25T02:03:38.439Z,17.37
2022-08-25T02:04:37.430Z,17.35
2022-08-25T02:05:37.385Z,17.34
2022-08-25T02:06:37.374Z,17.35
2022-08-25T02:07:37.351Z,17.41
2022-08-25T02:08:37.380Z,17.45
2022-08-25T02:09:37.333Z,17.41
2022-08-25T02:10:37.319Z,17.45
2022-08-25T02:11:37.302Z,17.41
2022-08-25T02:12:37.303Z,17.43
2022-08-25T02:13:37.284Z,17.43
2022-08-25T02:14:37.274Z,17.49
2022-08-25T02:15:37.252Z,17.45
2022-08-25T02:16:37.336Z,17.50
2022-08-25T02:17:37.222Z,17.45
2022-08-25T02:18:37.226Z,17.43
2022-08-25T02:19:37.196Z,17.41
2022-08-25T02:20:37.190Z,17.43
2022-08-25T02:21:37.179Z,17.41
2022-08-25T02:22:37.159Z,17.43
2022-08-25T02:23:37.163Z,17.39
2022-08-25T02:24:37.138Z,17.39
2022-08-25T02:25:37.127Z,17.38
2022-08-25T02:26:37.110Z,17.38
2022-08-25T02:27:38.058Z,17.43
2022-08-25T02:28:37.089Z,17.38
2022-08-25T02:29:37.060Z,17.37
2022-08-25T02:30:37.123Z,17.37
2022-08-25T02:31:37.039Z,17.35
2022-08-25T02:32:37.030Z,17.32
2022-08-25T02:33:37.019Z,17.34
2022-08-25T02:34:37.015Z,17.34
2022-08-25T02:35:36.981Z,17.31
2022-08-25T02:36:36.978Z,17.31
2022-08-25T02:37:36.972Z,17.34
2022-08-25T02:38:36.952Z,17.28
2022-08-25T02:39:36.935Z,17.31
2022-08-25T02:40:36.923Z,17.27
2022-08-25T02:41:36.902Z,17.27
2022-08-25T02:42:36.913Z,17.30
2022-08-25T02:43:36.883Z,17.25
2022-08-25T02:44:37.107Z,17.25
2022-08-25T02:45:36.907Z,17.25
2022-08-25T02:46:36.874Z,17.25
2022-08-25T02:47:36.830Z,17.25
2022-08-25T02:48:36.826Z,17.22
2022-08-25T02:49:36.796Z,17.24
2022-08-25T02:50:36.786Z,17.24
2022-08-25T02:51:36.775Z,17.20
2022-08-25T02:52:36.776Z,17.22
2022-08-25T02:53:36.747Z,17.27
2022-08-25T02:54:36.739Z,17.30
2022-08-25T02:55:36.725Z,17.30
2022-08-25T02:56:36.705Z,17.28
2022-08-25T02:57:36.708Z,17.28
2022-08-25T02:58:36.676Z,17.30
2022-08-25T02:59:36.929Z,17.25
2022-08-25T03:00:36.649Z,17.28
2022-08-25T03:01:36.662Z,17.37
2022-08-25T03:02:36.630Z,17.32
2022-08-25T03:03:39.418Z,17.34
2022-08-25T03:04:36.619Z,17.31
2022-08-25T03:05:36.581Z,17.35
2022-08-25T03:06:36.581Z,17.34
2022-08-25T03:07:36.572Z,17.34
2022-08-25T03:08:36.553Z,17.37
2022-08-25T03:09:36.763Z,17.38
2022-08-25T03:10:36.513Z,17.35
2022-08-25T03:11:36.509Z,17.39
2022-08-25T03:12:36.509Z,17.38
2022-08-25T03:13:36.484Z,17.38
2022-08-25T03:14:36.468Z,17.38
2022-08-25T03:15:36.444Z,17.41
2022-08-25T03:16:36.482Z,17.39
2022-08-25T03:17:36.425Z,17.38
2022-08-25T03:18:36.420Z,17.43
2022-08-25T03:19:36.385Z,17.35
2022-08-25T03:20:36.376Z,17.39
2022-08-25T03:21:36.367Z,17.38
2022-08-25T03:22:36.597Z,17.38
2022-08-25T03:23:36.405Z,17.39
2022-08-25T03:24:36.334Z,17.38
2022-08-25T03:25:36.311Z,17.28
2022-08-25T03:26:36.310Z,17.30
2022-08-25T03:27:36.288Z,17.31
2022-08-25T03:28:36.298Z,17.28
2022-08-25T03:29:36.250Z,17.30
2022-08-25T03:30:36.242Z,17.31
2022-08-25T03:31:36.289Z,17.27
2022-08-25T03:32:36.234Z,17.28
2022-08-25T03:33:36.240Z,17.28
2022-08-25T03:34:36.226Z,17.27
2022-08-25T03:35:36.183Z,17.24
2022-08-25T03:36:36.161Z,17.24
2022-08-25T03:37:36.151Z,17.27
2022-08-25T03:38:36.152Z,17.24
2022-08-25T03:39:36.122Z,17.25
2022-08-25T03:40:36.113Z,17.25
2022-08-25T03:41:37.054Z,17.24
2022-08-25T03:42:37.033Z,17.24
2022-08-25T03:43:36.084Z,17.24
2022-08-25T03:44:36.054Z,17.24
2022-08-25T03:45:36.075Z,17.22
2022-08-25T03:46:36.036Z,17.25
2022-08-25T03:47:36.015Z,17.25
2022-08-25T03:48:36.984Z,17.25
2022-08-25T03:49:35.985Z,17.28
2022-08-25T03:50:35.987Z,17.24
2022-08-25T03:51:35.985Z,17.24
2022-08-25T03:52:40.184Z,17.24
2022-08-25T03:53:36.936Z,17.24
2022-08-25T03:54:35.925Z,17.28
2022-08-25T03:55:35.919Z,17.32
2022-08-25T03:56:35.912Z,17.32
2022-08-25T03:57:35.879Z,17.34
2022-08-25T03:58:35.880Z,17.32
2022-08-25T03:59:35.860Z,17.28
2022-08-25T04:00:35.868Z,17.34
2022-08-25T04:01:35.862Z,17.32
2022-08-25T04:02:35.844Z,17.34
2022-08-25T04:03:35.809Z,17.32
2022-08-25T04:04:35.791Z,17.32
2022-08-25T04:05:35.786Z,17.31
2022-08-25T04:06:35.760Z,17.34
2022-08-25T04:07:35.756Z,17.37
2022-08-25T04:08:35.982Z,17.39
2022-08-25T04:09:36.965Z,17.37
2022-08-25T04:10:35.718Z,17.35
2022-08-25T04:11:35.703Z,17.35
2022-08-25T04:12:35.683Z,17.37
2022-08-25T04:13:35.675Z,17.38
2022-08-25T04:14:35.654Z,17.39
2022-08-25T04:15:35.646Z,17.38
2022-08-25T04:16:35.687Z,17.39
2022-08-25T04:17:35.625Z,17.41
2022-08-25T04:18:35.596Z,17.41
2022-08-25T04:19:35.596Z,17.39
2022-08-25T04:20:35.577Z,17.38
2022-08-25T04:21:35.557Z,17.38
2022-08-25T04:22:36.846Z,17.38
2022-08-25T04:23:35.537Z,17.39
2022-08-25T04:24:35.519Z,17.43
2022-08-25T04:25:35.508Z,17.47
2022-08-25T04:26:35.493Z,17.46
2022-08-25T04:27:35.488Z,17.47
2022-08-25T04:28:35.477Z,17.43
2022-08-25T04:29:35.467Z,17.46
2022-08-25T04:30:35.441Z,17.47
2022-08-25T04:31:35.476Z,17.49
2022-08-25T04:32:35.420Z,17.53
2022-08-25T04:33:35.403Z,17.50
2022-08-25T04:34:35.381Z,17.50
2022-08-25T04:35:35.372Z,17.49
2022-08-25T04:36:35.359Z,17.53
2022-08-25T04:37:35.369Z,17.56
2022-08-25T04:38:35.332Z,17.56
2022-08-25T04:39:35.322Z,17.53
2022-08-25T04:40:35.364Z,17.54
2022-08-25T04:41:35.293Z,17.52
2022-08-25T04:42:35.284Z,17.56
2022-08-25T04:43:35.280Z,17.63
2022-08-25T04:44:35.254Z,17.63
2022-08-25T04:45:35.320Z,17.63
2022-08-25T04:46:35.225Z,17.62
2022-08-25T04:47:35.226Z,17.59
2022-08-25T04:48:35.196Z,17.69
2022-08-25T04:49:35.193Z,17.68
2022-08-25T04:50:35.176Z,17.71
2022-08-25T04:51:35.174Z,17.69
2022-08-25T04:52:35.149Z,17.68
2022-08-25T04:53:35.134Z,17.66
2022-08-25T04:54:37.401Z,17.69
2022-08-25T04:55:35.108Z,17.72
2022-08-25T04:56:35.089Z,17.78
2022-08-25T04:57:35.090Z,17.75
2022-08-25T04:58:35.065Z,17.81
2022-08-25T04:59:35.059Z,17.76
2022-08-25T05:00:35.066Z,17.79
2022-08-25T05:01:35.027Z,17.88
2022-08-25T05:02:35.020Z,17.88
2022-08-25T05:03:34.999Z,17.91
2022-08-25T05:04:35.077Z,17.91
2022-08-25T05:05:34.981Z,17.90
2022-08-25T05:06:34.983Z,17.93
2022-08-25T05:07:34.985Z,17.93
2022-08-25T05:08:34.941Z,17.94
2022-08-25T05:09:35.871Z,17.96
2022-08-25T05:10:34.912Z,17.96
2022-08-25T05:11:34.918Z,17.99
2022-08-25T05:12:34.886Z,18.03
2022-08-25T05:13:34.887Z,18.11
2022-08-25T05:14:34.849Z,18.11
2022-08-25T05:15:34.841Z,18.12
2022-08-25T05:16:34.914Z,18.15
2022-08-25T05:17:34.840Z,18.20
2022-08-25T05:18:34.833Z,18.26
2022-08-25T05:19:34.789Z,18.21
2022-08-25T05:20:34.767Z,18.30
2022-08-25T05:21:34.768Z,18.38
2022-08-25T05:22:34.753Z,18.38
2022-08-25T05:23:34.737Z,18.39
2022-08-25T05:24:34.727Z,18.39
2022-08-25T05:25:34.709Z,18.43
2022-08-25T05:26:34.741Z,18.46
2022-08-25T05:27:34.690Z,18.52
2022-08-25T05:28:34.679Z,18.56
2022-08-25T05:29:34.659Z,18.60
2022-08-25T05:30:35.580Z,18.63
2022-08-25T05:31:38.395Z,18.63
2022-08-25T05:32:35.611Z,18.67
2022-08-25T05:33:34.603Z,18.67
2022-08-25T05:34:34.582Z,18.66
2022-08-25T05:35:34.579Z,18.66
2022-08-25T05:36:34.563Z,18.63
2022-08-25T05:37:34.552Z,18.64
2022-08-25T05:38:34.534Z,18.64
2022-08-25T05:39:34.523Z,18.66
2022-08-25T05:40:34.511Z,18.61
2022-08-25T05:41:34.502Z,18.66
2022-08-25T05:42:34.484Z,18.70
2022-08-25T05:43:34.465Z,18.71
2022-08-25T05:44:34.457Z,18.75
2022-08-25T05:45:34.502Z,18.74
2022-08-25T05:46:34.436Z,18.75
2022-08-25T05:47:34.413Z,18.81
2022-08-25T05:48:34.405Z,18.83
2022-08-25T05:49:34.387Z,18.89
2022-08-25T05:50:34.368Z,18.96
2022-08-25T05:51:34.377Z,19.00
2022-08-25T05:52:34.349Z,18.98
2022-08-25T05:53:34.338Z,18.96
2022-08-25T05:54:34.334Z,18.96
2022-08-25T05:55:34.310Z,18.98
2022-08-25T05:56:34.299Z,19.09
2022-08-25T05:57:34.287Z,19.09
2022-08-25T05:58:34.281Z,19.22
2022-08-25T05:59:34.257Z,19.24
2022-08-25T06:00:34.251Z,19.32
2022-08-25T06:01:34.260Z,19.32
2022-08-25T06:02:34.219Z,19.31
2022-08-25T06:03:35.193Z,19.27
2022-08-25T06:04:36.586Z,19.27
2022-08-25T06:05:34.179Z,19.37
2022-08-25T06:06:34.174Z,19.37
2022-08-25T06:07:34.154Z,19.35
2022-08-25T06:08:34.169Z,19.38
2022-08-25T06:09:34.125Z,19.39
2022-08-25T06:10:34.105Z,19.41
2022-08-25T06:11:34.119Z,19.47
2022-08-25T06:12:34.085Z,19.56
2022-08-25T06:13:34.076Z,19.62
2022-08-25T06:14:34.057Z,19.72
2022-08-25T06:15:34.046Z,19.81
2022-08-25T06:16:34.054Z,19.81
2022-08-25T06:17:34.137Z,19.89
2022-08-25T06:18:34.028Z,19.97
2022-08-25T06:19:34.003Z,20.00
2022-08-25T06:20:33.998Z,20.05
2022-08-25T06:21:33.969Z,20.09
2022-08-25T06:22:34.218Z,20.19
2022-08-25T06:23:33.952Z,20.18
2022-08-25T06:24:33.928Z,20.26
2022-08-25T06:25:33.913Z,20.27
2022-08-25T06:26:33.910Z,20.30
2022-08-25T06:27:33.880Z,20.37
2022-08-25T06:28:33.871Z,20.37
2022-08-25T06:29:33.871Z,20.42
2022-08-25T06:30:33.845Z,20.46
2022-08-25T06:31:33.894Z,20.53
2022-08-25T06:32:33.813Z,20.48
2022-08-25T06:33:33.805Z,20.48
2022-08-25T06:34:33.793Z,20.50
2022-08-25T06:35:33.783Z,20.55
2022-08-25T06:36:34.731Z,20.61
2022-08-25T06:37:34.555Z,20.64
2022-08-25T06:38:33.735Z,20.67
2022-08-25T06:39:33.735Z,20.73
2022-08-25T06:40:34.691Z,20.74
2022-08-25T06:41:36.803Z,20.73
2022-08-25T06:42:33.686Z,20.79
2022-08-25T06:43:33.677Z,20.82
2022-08-25T06:44:33.656Z,20.86
2022-08-25T06:45:33.656Z,20.92
2022-08-25T06:46:36.318Z,20.92
2022-08-25T06:47:34.579Z,20.95
2022-08-25T06:48:33.614Z,20.93
2022-08-25T06:49:36.206Z,20.93
2022-08-25T06:50:33.590Z,20.98
2022-08-25T06:51:33.567Z,21.03
2022-08-25T06:52:33.560Z,21.10
2022-08-25T06:53:33.541Z,21.20
2022-08-25T06:54:33.521Z,21.26
2022-08-25T06:55:33.522Z,21.38
2022-08-25T06:56:33.493Z,21.53
2022-08-25T06:57:33.489Z,21.66
2022-08-25T06:58:33.473Z,21.82
2022-08-25T06:59:33.490Z,21.93
2022-08-25T07:00:33.487Z,21.97
2022-08-25T07:01:33.623Z,21.97
2022-08-25T07:02:35.403Z,21.98
2022-08-25T07:03:33.429Z,21.98
2022-08-25T07:04:33.396Z,22.04
2022-08-25T07:05:43.489Z,22.12
2022-08-25T07:06:34.360Z,22.22
2022-08-25T07:07:43.592Z,22.36
2022-08-25T07:08:34.346Z,22.52
2022-08-25T07:09:37.329Z,22.68
2022-08-25T07:10:34.316Z,22.80
2022-08-25T07:11:33.310Z,22.95
2022-08-25T07:12:33.287Z,23.03
2022-08-25T07:13:33.278Z,23.17
2022-08-25T07:14:33.259Z,23.34
2022-08-25T07:15:33.300Z,23.37
2022-08-25T07:16:34.221Z,23.51
2022-08-25T07:17:33.219Z,23.56
2022-08-25T07:18:33.210Z,23.56
2022-08-25T07:19:33.197Z,23.61
2022-08-25T07:20:33.181Z,23.60
2022-08-25T07:21:35.460Z,23.63
2022-08-25T07:22:33.151Z,23.60
2022-08-25T07:23:33.139Z,23.63
2022-08-25T07:24:33.142Z,23.63
2022-08-25T07:25:33.143Z,23.71
2022-08-25T07:26:40.081Z,23.76
2022-08-25T07:27:34.099Z,23.89
2022-08-25T07:28:33.074Z,23.96
2022-08-25T07:29:33.324Z,23.96
2022-08-25T07:30:33.065Z,24.04
2022-08-25T07:31:33.071Z,24.18
2022-08-25T07:32:33.016Z,24.26
2022-08-25T07:33:33.016Z,24.31
2022-08-25T07:34:32.987Z,24.36
2022-08-25T07:35:37.354Z,24.29
2022-08-25T07:36:32.968Z,24.36
2022-08-25T07:37:48.092Z,24.43
2022-08-25T07:38:33.948Z,24.45
2022-08-25T07:39:32.932Z,24.59
2022-08-25T07:40:32.954Z,24.78
2022-08-25T07:41:32.914Z,24.85
2022-08-25T07:42:32.899Z,24.91
2022-08-25T07:43:32.876Z,24.85
2022-08-25T07:44:32.866Z,24.78
2022-08-25T07:45:32.882Z,24.74
2022-08-25T07:46:32.868Z,24.66
2022-08-25T07:47:32.832Z,24.56
2022-08-25T07:48:32.842Z,24.48
2022-08-25T07:50:33.784Z,24.51
2022-08-25T07:51:32.788Z,24.52
2022-08-25T07:52:32.785Z,24.52
2022-08-25T07:53:32.762Z,24.62
2022-08-25T07:54:34.224Z,24.60
2022-08-25T07:55:32.715Z,24.62
2022-08-25T07:56:32.695Z,24.79
2022-08-25T07:57:32.693Z,24.94
2022-08-25T07:58:32.686Z,25.00
2022-08-25T07:59:39.231Z,24.96
2022-08-25T08:00:33.648Z,24.96
2022-08-25T08:01:32.664Z,25.00
2022-08-25T08:02:32.665Z,25.01
2022-08-25T08:03:45.199Z,25.06
2022-08-25T08:04:33.610Z,25.08
2022-08-25T08:05:32.589Z,25.19
2022-08-25T08:06:32.570Z,25.31
2022-08-25T08:07:43.427Z,25.40
2022-08-25T08:08:33.550Z,25.38
2022-08-25T08:09:32.541Z,25.41
2022-08-25T08:10:53.872Z,25.51
2022-08-25T08:11:33.537Z,25.55
2022-08-25T08:12:32.493Z,25.51
2022-08-25T08:13:32.484Z,25.40
2022-08-25T08:14:32.481Z,25.15
2022-08-25T08:15:32.453Z,25.00
2022-08-25T08:16:33.691Z,24.97
2022-08-25T08:17:32.426Z,24.93
2022-08-25T08:18:33.371Z,24.86
2022-08-25T08:19:32.423Z,24.60
2022-08-25T08:20:35.926Z,24.55
2022-08-25T08:21:33.376Z,24.56
2022-08-25T08:22:32.364Z,24.58
2022-08-25T08:23:33.306Z,24.56
2022-08-25T08:24:44.695Z,24.63
2022-08-25T08:25:33.328Z,24.70
2022-08-25T08:26:55.304Z,24.68
2022-08-25T08:27:33.308Z,24.86
2022-08-25T08:28:32.279Z,24.96
2022-08-25T08:29:32.270Z,24.82
2022-08-25T08:30:32.257Z,24.74
2022-08-25T08:31:32.261Z,24.63
2022-08-25T08:32:46.430Z,24.62
2022-08-25T08:33:34.169Z,24.60
2022-08-25T08:34:33.217Z,24.68
2022-08-25T08:35:32.192Z,24.78
2022-08-25T08:36:32.193Z,24.85
2022-08-25T08:37:32.158Z,24.96
2022-08-25T08:38:32.171Z,25.06
2022-08-25T08:39:32.688Z,25.11
2022-08-25T08:40:32.208Z,25.08
2022-08-25T08:41:40.201Z,25.01
2022-08-25T08:42:33.095Z,25.09
2022-08-25T08:43:33.444Z,25.06
2022-08-25T08:44:32.086Z,25.09
2022-08-25T08:45:35.361Z,25.08
2022-08-25T08:46:33.088Z,25.11
2022-08-25T08:47:32.026Z,25.16
2022-08-25T08:48:32.280Z,25.11
2022-08-25T08:49:32.247Z,25.12
2022-08-25T08:50:33.609Z,25.22
2022-08-25T08:51:32.781Z,25.34
2022-08-25T08:52:31.967Z,25.38
2022-08-25T08:53:34.234Z,25.38
2022-08-25T08:54:34.029Z,25.51
2022-08-25T08:55:31.921Z,25.55
2022-08-25T08:56:31.910Z,25.51
2022-08-25T08:57:31.891Z,25.49
2022-08-25T08:58:31.888Z,25.68
2022-08-25T08:59:31.932Z,25.77
2022-08-25T09:00:32.818Z,25.70
2022-08-25T09:01:31.898Z,25.86
2022-08-25T09:02:39.331Z,26.01
2022-08-25T09:03:32.864Z,26.28
2022-08-25T09:04:31.818Z,26.49
2022-08-25T09:05:34.384Z,26.60
2022-08-25T09:06:32.772Z,26.63
2022-08-25T09:07:31.771Z,26.65
2022-08-25T09:08:31.756Z,26.70
2022-08-25T09:09:35.782Z,26.83
2022-08-25T09:10:31.731Z,26.95
2022-08-25T09:11:31.710Z,27.08
2022-08-25T09:12:31.706Z,27.27
2022-08-25T09:13:31.700Z,27.40
2022-08-25T09:14:31.668Z,27.38
2022-08-25T09:15:31.693Z,27.26
2022-08-25T09:16:34.490Z,27.08
2022-08-25T09:17:31.630Z,27.01
2022-08-25T09:18:32.591Z,27.03
2022-08-25T09:19:32.090Z,26.78
2022-08-25T09:20:31.641Z,26.67
2022-08-25T09:21:31.604Z,26.56
2022-08-25T09:22:33.462Z,26.57
2022-08-25T09:23:31.582Z,26.39
2022-08-25T09:24:31.573Z,26.05
2022-08-25T09:25:53.391Z,26.03
2022-08-25T09:26:32.514Z,25.88
2022-08-25T09:27:31.496Z,25.81
2022-08-25T09:28:31.503Z,25.71
2022-08-25T09:29:31.479Z,25.68
2022-08-25T09:30:31.456Z,25.77
2022-08-25T09:31:31.489Z,25.77
2022-08-25T09:32:32.395Z,25.70
2022-08-25T09:33:31.427Z,25.66
2022-08-25T09:34:32.358Z,25.74
2022-08-25T09:35:32.339Z,25.86
2022-08-25T09:36:35.489Z,25.95
2022-08-25T09:37:32.367Z,25.98
2022-08-25T09:38:31.370Z,26.04
2022-08-25T09:39:31.349Z,26.15
2022-08-25T09:40:32.343Z,26.15
2022-08-25T09:41:31.321Z,26.16
2022-08-25T09:42:31.299Z,26.28
2022-08-25T09:43:31.293Z,26.28
2022-08-25T09:44:31.270Z,26.42
2022-08-25T09:45:31.271Z,26.48
2022-08-25T09:46:31.268Z,26.65
2022-08-25T09:47:31.234Z,26.60
2022-08-25T09:48:31.237Z,26.57
2022-08-25T09:49:31.207Z,26.61
2022-08-25T09:50:31.196Z,26.67
2022-08-25T09:51:37.898Z,26.86
2022-08-25T09:52:32.409Z,26.83
2022-08-25T09:53:33.813Z,26.86
2022-08-25T09:54:44.406Z,27.01
2022-08-25T09:55:32.422Z,27.05
2022-08-25T09:56:31.116Z,27.17
2022-08-25T09:57:31.097Z,27.34
2022-08-25T09:58:31.088Z,27.34
2022-08-25T09:59:34.963Z,27.34
2022-08-25T10:00:31.067Z,27.35
2022-08-25T10:01:34.537Z,27.35
2022-08-25T10:02:31.039Z,27.40
2022-08-25T10:03:31.029Z,27.35
2022-08-25T10:04:32.011Z,27.57
2022-08-25T10:05:31.011Z,27.73
2022-08-25T10:06:30.998Z,28.03
2022-08-25T10:07:30.972Z,28.17
2022-08-25T10:08:30.971Z,28.19
2022-08-25T10:09:30.963Z,28.00
2022-08-25T10:11:45.159Z,28.07
2022-08-25T10:12:43.911Z,27.88
2022-08-25T10:13:43.932Z,27.80
2022-08-25T10:14:44.480Z,27.68
2022-08-25T10:15:44.094Z,27.53
2022-08-25T10:16:46.886Z,27.49
2022-08-25T10:17:44.031Z,27.54
2022-08-25T10:18:43.124Z,27.68
2022-08-25T10:19:43.023Z,27.70
2022-08-25T10:20:44.735Z,27.80
2022-08-25T10:21:43.027Z,27.63
2022-08-25T10:22:43.007Z,27.52
2022-08-25T10:23:42.992Z,27.53
2022-08-25T10:24:44.222Z,27.64
2022-08-25T10:25:42.966Z,28.01
2022-08-25T10:26:43.947Z,28.17
2022-08-25T10:27:42.937Z,28.09
2022-08-25T10:28:42.916Z,27.88
2022-08-25T10:29:42.898Z,27.83
2022-08-25T10:30:42.961Z,27.76
2022-08-25T10:31:42.879Z,27.93
2022-08-25T10:32:42.873Z,28.03
2022-08-25T10:33:42.847Z,28.01
2022-08-25T10:34:44.386Z,27.88
2022-08-25T10:35:42.829Z,27.78
2022-08-25T10:36:42.811Z,27.64
2022-08-25T10:37:42.812Z,27.61
2022-08-25T10:38:43.525Z,27.58
2022-08-25T10:39:42.780Z,27.44
2022-08-25T10:40:43.639Z,27.20
2022-08-25T10:41:42.734Z,27.31
2022-08-25T10:42:42.870Z,27.32
2022-08-25T10:43:42.977Z,27.40
2022-08-25T10:44:42.692Z,27.44
2022-08-25T10:45:42.686Z,27.27
2022-08-25T10:46:43.214Z,27.07
2022-08-25T10:47:42.666Z,26.86
2022-08-25T10:48:42.650Z,26.67
2022-08-25T10:49:42.636Z,26.60
2022-08-25T10:50:45.596Z,26.64
2022-08-25T10:51:43.615Z,27.04
2022-08-25T10:52:43.559Z,27.32
2022-08-25T10:53:42.579Z,27.63
2022-08-25T10:54:42.562Z,27.82
2022-08-25T10:55:42.551Z,27.80
2022-08-25T10:56:42.569Z,27.75
2022-08-25T10:57:42.542Z,27.66
2022-08-25T10:58:42.512Z,27.60
2022-08-25T10:59:42.502Z,27.63
2022-08-25T11:00:47.708Z,27.87
2022-08-25T11:01:44.489Z,28.27
2022-08-25T11:02:42.523Z,28.65
2022-08-25T11:03:42.444Z,28.80
2022-08-25T11:04:42.450Z,29.12
2022-08-25T11:05:42.435Z,29.47
2022-08-25T11:06:42.420Z,29.66
2022-08-25T11:07:43.453Z,29.63
2022-08-25T11:08:42.386Z,29.31
2022-08-25T11:09:43.336Z,28.89
2022-08-25T11:10:42.346Z,28.54
2022-08-25T11:11:42.369Z,28.57
2022-08-25T11:12:42.334Z,28.64
2022-08-25T11:13:43.278Z,28.86
2022-08-25T11:14:42.328Z,29.07
2022-08-25T11:15:54.822Z,29.27
2022-08-25T11:16:43.329Z,29.33
2022-08-25T11:17:42.271Z,29.39
2022-08-25T11:18:42.251Z,29.39
2022-08-25T11:19:42.247Z,29.27
2022-08-25T11:20:42.232Z,28.96
2022-08-25T11:21:42.213Z,28.91
2022-08-25T11:22:42.202Z,29.02
2022-08-25T11:23:42.194Z,28.79
2022-08-25T11:24:42.198Z,28.65
2022-08-25T11:25:42.165Z,28.61
2022-08-25T11:26:42.157Z,28.53
2022-08-25T11:27:42.140Z,28.43
2022-08-25T11:28:42.125Z,28.52
2022-08-25T11:29:42.106Z,28.75
2022-08-25T11:30:42.124Z,28.93
2022-08-25T11:31:42.081Z,29.10
2022-08-25T11:32:42.089Z,29.19
2022-08-25T11:33:42.058Z,28.86
2022-08-25T11:34:43.860Z,28.47
2022-08-25T11:35:42.039Z,28.20
2022-08-25T11:36:42.022Z,28.16
2022-08-25T11:37:42.020Z,28.50
2022-08-25T11:38:41.997Z,28.65
2022-08-25T11:39:41.981Z,28.64
2022-08-25T11:40:41.994Z,28.80
2022-08-25T11:41:41.982Z,28.79
2022-08-25T11:42:42.190Z,28.74
2022-08-25T11:43:41.923Z,28.61
2022-08-25T11:44:53.270Z,28.61
2022-08-25T11:45:42.953Z,28.79
2022-08-25T11:46:41.907Z,29.07
2022-08-25T11:47:41.885Z,29.39
2022-08-25T11:48:41.874Z,29.49
2022-08-25T11:49:41.852Z,29.63
2022-08-25T11:50:41.846Z,29.68
2022-08-25T11:51:41.816Z,29.61
2022-08-25T11:52:41.826Z,29.62
2022-08-25T11:53:42.336Z,29.76
2022-08-25T11:54:41.806Z,29.95
2022-08-25T11:55:41.772Z,29.84
2022-08-25T11:56:41.768Z,29.78
2022-08-25T11:57:41.769Z,29.68
2022-08-25T11:58:41.739Z,29.58
2022-08-25T11:59:41.746Z,29.52
2022-08-25T12:00:41.718Z,29.44
2022-08-25T12:01:42.659Z,29.43
2022-08-25T12:02:42.578Z,29.31
2022-08-25T12:03:41.661Z,28.98
2022-08-25T12:04:44.309Z,29.06
2022-08-25T12:05:41.759Z,29.06
2022-08-25T12:06:41.641Z,29.12
2022-08-25T12:07:41.664Z,29.09
2022-08-25T12:08:41.604Z,29.10
2022-08-25T12:09:41.602Z,29.28
2022-08-25T12:10:41.590Z,29.44
2022-08-25T12:11:41.713Z,29.77
2022-08-25T12:12:41.557Z,30.17
2022-08-25T12:13:41.536Z,30.32
2022-08-25T12:14:41.524Z,30.32
2022-08-25T12:15:41.517Z,30.35
2022-08-25T12:16:41.617Z,30.37
2022-08-25T12:17:41.493Z,30.49
2022-08-25T12:18:45.938Z,30.40
2022-08-25T12:19:41.469Z,30.20
2022-08-25T12:20:41.451Z,29.98
2022-08-25T12:21:41.746Z,29.74
2022-08-25T12:22:41.430Z,29.78
2022-08-25T12:23:44.776Z,29.93
2022-08-25T12:24:41.402Z,29.95
2022-08-25T12:25:43.498Z,29.84
2022-08-25T12:26:41.383Z,29.80
2022-08-25T12:27:41.375Z,29.70
2022-08-25T12:28:41.424Z,29.89
2022-08-25T12:29:41.324Z,30.02
2022-08-25T12:30:41.346Z,30.26
2022-08-25T12:31:41.317Z,30.53
2022-08-25T12:32:41.288Z,30.60
2022-08-25T12:33:41.277Z,30.78
2022-08-25T12:34:41.274Z,30.62
2022-08-25T12:35:41.953Z,30.60
2022-08-25T12:36:41.264Z,30.62
2022-08-25T12:37:41.228Z,30.53
2022-08-25T12:38:43.285Z,30.55
2022-08-25T12:39:41.200Z,30.68
2022-08-25T12:40:41.197Z,30.83
2022-08-25T12:41:41.201Z,30.60
2022-08-25T12:42:41.164Z,30.33
2022-08-25T12:43:42.174Z,30.36
2022-08-25T12:44:41.143Z,30.59
2022-08-25T12:45:41.181Z,30.80
2022-08-25T12:46:41.143Z,30.97
2022-08-25T12:47:44.737Z,31.04
2022-08-25T12:48:41.092Z,31.04
2022-08-25T12:49:41.084Z,30.90
2022-08-25T12:50:41.071Z,30.60
2022-08-25T12:51:41.045Z,30.64
2022-08-25T12:52:42.056Z,30.75
2022-08-25T12:53:41.025Z,30.83
2022-08-25T12:54:41.014Z,30.88
2022-08-25T12:55:40.998Z,30.73